sensor_id;sensor_type;location;lat;lon;timestamp;pressure;altitude;pressure_sealevel;temperature;humidity
11682;BME280;5897;42.640;23.310;2023-05-19T00:00:01;94147.97;;;11.81;100.00
11682;BME280;5897;42.640;23.310;2023-05-19T00:02:29;94149.81;;;11.84;100.00
11682;BME280;5897;42.640;23.310;2023-05-19T00:04:58;94155.13;;;11.87;100.00
11682;BME280;5897;42.640;23.310;2023-05-19T00:07:27;94145.69;;;11.79;100.00
11682;BME280;5897;42.640;23.310;2023-05-19T00:09:58;94137.13;;;11.81;100.00
11682;BME280;5897;42.640;23.310;2023-05-19T00:12:25;94151.44;;;11.81;100.00
11682;BME280;5897;42.640;23.310;2023-05-19T00:14:52;94140.50;;;11.85;100.00
11682;BME280;5897;42.640;23.310;2023-05-19T00:17:20;94145.50;;;11.86;100.00
11682;BME280;5897;42.640;23.310;2023-05-19T00:19:47;94141.59;;;11.87;100.00
11682;BME280;5897;42.640;23.310;2023-05-19T00:22:14;94134.84;;;11.79;100.00
11682;BME280;5897;42.640;23.310;2023-05-19T00:24:41;94133.69;;;11.93;100.00
11682;BME280;5897;42.640;23.310;2023-05-19T00:27:09;94129.59;;;11.88;100.00
11682;BME280;5897;42.640;23.310;2023-05-19T00:29:36;94125.56;;;11.80;100.00
11682;BME280;5897;42.640;23.310;2023-05-19T00:32:03;94124.28;;;11.85;100.00
11682;BME280;5897;42.640;23.310;2023-05-19T00:34:30;94119.28;;;11.83;100.00
11682;BME280;5897;42.640;23.310;2023-05-19T00:36:57;94124.50;;;11.90;100.00
11682;BME280;5897;42.640;23.310;2023-05-19T00:39:23;94120.25;;;11.89;100.00
11682;BME280;5897;42.640;23.310;2023-05-19T00:41:50;94116.91;;;11.85;100.00
11682;BME280;5897;42.640;23.310;2023-05-19T00:44:18;94123.50;;;11.84;100.00
11682;BME280;5897;42.640;23.310;2023-05-19T00:46:45;94124.50;;;11.90;100.00
11682;BME280;5897;42.640;23.310;2023-05-19T00:49:12;94129.06;;;11.93;100.00
11682;BME280;5897;42.640;23.310;2023-05-19T00:51:39;94112.28;;;11.98;100.00
11682;BME280;5897;42.640;23.310;2023-05-19T00:54:07;94114.66;;;11.96;100.00
11682;BME280;5897;42.640;23.310;2023-05-19T00:56:34;94111.19;;;11.96;100.00
11682;BME280;5897;42.640;23.310;2023-05-19T00:59:01;94112.25;;;11.86;100.00
11682;BME280;5897;42.640;23.310;2023-05-19T01:01:29;94118.03;;;12.00;100.00
11682;BME280;5897;42.640;23.310;2023-05-19T01:03:56;94115.84;;;11.95;100.00
11682;BME280;5897;42.640;23.310;2023-05-19T01:06:24;94115.19;;;11.91;100.00
11682;BME280;5897;42.640;23.310;2023-05-19T01:08:53;94114.66;;;11.96;100.00
11682;BME280;5897;42.640;23.310;2023-05-19T01:11:20;94124.94;;;12.01;100.00
11682;BME280;5897;42.640;23.310;2023-05-19T01:13:47;94120.59;;;11.91;100.00
11682;BME280;5897;42.640;23.310;2023-05-19T01:16:23;94124.16;;;11.88;100.00
11682;BME280;5897;42.640;23.310;2023-05-19T01:18:57;94120.16;;;11.80;100.00
11682;BME280;5897;42.640;23.310;2023-05-19T01:21:50;94126.59;;;11.70;100.00
11682;BME280;5897;42.640;23.310;2023-05-19T01:24:44;94132.50;;;11.81;100.00
11682;BME280;5897;42.640;23.310;2023-05-19T01:27:27;94127.34;;;11.71;100.00
11682;BME280;5897;42.640;23.310;2023-05-19T01:30:28;94103.47;;;11.53;100.00
11682;BME280;5897;42.640;23.310;2023-05-19T01:32:58;94124.47;;;11.78;100.00
11682;BME280;5897;42.640;23.310;2023-05-19T01:35:27;94124.91;;;11.76;100.00
11682;BME280;5897;42.640;23.310;2023-05-19T01:37:55;94123.69;;;11.77;100.00
11682;BME280;5897;42.640;23.310;2023-05-19T01:40:24;94112.44;;;11.79;100.00
11682;BME280;5897;42.640;23.310;2023-05-19T01:42:53;94118.91;;;11.69;100.00
11682;BME280;5897;42.640;23.310;2023-05-19T01:45:22;94109.91;;;11.59;100.00
11682;BME280;5897;42.640;23.310;2023-05-19T01:47:52;94115.66;;;11.45;100.00
11682;BME280;5897;42.640;23.310;2023-05-19T01:50:19;94124.75;;;11.51;100.00
11682;BME280;5897;42.640;23.310;2023-05-19T01:52:46;94119.03;;;11.49;100.00
11682;BME280;5897;42.640;23.310;2023-05-19T01:55:13;94126.63;;;11.54;100.00
11682;BME280;5897;42.640;23.310;2023-05-19T01:57:46;94122.72;;;11.55;100.00
11682;BME280;5897;42.640;23.310;2023-05-19T02:00:23;94123.59;;;11.52;100.00
11682;BME280;5897;42.640;23.310;2023-05-19T02:03:04;94133.47;;;11.59;100.00
11682;BME280;5897;42.640;23.310;2023-05-19T02:05:37;94130.25;;;11.48;100.00
11682;BME280;5897;42.640;23.310;2023-05-19T02:08:10;94121.63;;;11.52;100.00
11682;BME280;5897;42.640;23.310;2023-05-19T02:10:40;94120.69;;;11.75;100.00
11682;BME280;5897;42.640;23.310;2023-05-19T02:13:13;94117.28;;;11.71;100.00
11682;BME280;5897;42.640;23.310;2023-05-19T02:15:46;94126.59;;;11.70;100.00
11682;BME280;5897;42.640;23.310;2023-05-19T02:18:14;94114.59;;;11.71;100.00
11682;BME280;5897;42.640;23.310;2023-05-19T02:20:42;94121.75;;;11.78;100.00
11682;BME280;5897;42.640;23.310;2023-05-19T02:23:08;94121.97;;;11.83;100.00
11682;BME280;5897;42.640;23.310;2023-05-19T02:25:35;94132.81;;;11.83;100.00
11682;BME280;5897;42.640;23.310;2023-05-19T02:28:02;94125.88;;;11.82;100.00
11682;BME280;5897;42.640;23.310;2023-05-19T02:30:29;94128.44;;;11.73;100.00
11682;BME280;5897;42.640;23.310;2023-05-19T02:32:58;94126.47;;;11.61;100.00
11682;BME280;5897;42.640;23.310;2023-05-19T02:35:25;94129.31;;;11.54;100.00
11682;BME280;5897;42.640;23.310;2023-05-19T02:37:52;94115.41;;;11.40;100.00
11682;BME280;5897;42.640;23.310;2023-05-19T02:40:19;94139.16;;;11.48;100.00
11682;BME280;5897;42.640;23.310;2023-05-19T02:42:46;94132.47;;;11.37;100.00
11682;BME280;5897;42.640;23.310;2023-05-19T02:45:13;94128.16;;;11.39;100.00
11682;BME280;5897;42.640;23.310;2023-05-19T02:47:40;94135.63;;;11.35;100.00
11682;BME280;5897;42.640;23.310;2023-05-19T02:50:08;94131.56;;;11.27;100.00
11682;BME280;5897;42.640;23.310;2023-05-19T02:52:35;94129.38;;;11.22;100.00
11682;BME280;5897;42.640;23.310;2023-05-19T02:55:02;94129.56;;;11.15;100.00
11682;BME280;5897;42.640;23.310;2023-05-19T02:57:29;94136.41;;;11.20;100.00
11682;BME280;5897;42.640;23.310;2023-05-19T02:59:57;94128.22;;;11.07;100.00
11682;BME280;5897;42.640;23.310;2023-05-19T03:02:24;94142.56;;;11.20;100.00
11682;BME280;5897;42.640;23.310;2023-05-19T03:04:51;94130.91;;;11.23;100.00
11682;BME280;5897;42.640;23.310;2023-05-19T03:07:19;94135.06;;;11.12;100.00
11682;BME280;5897;42.640;23.310;2023-05-19T03:09:49;94134.88;;;11.19;100.00
11682;BME280;5897;42.640;23.310;2023-05-19T03:12:16;94139.44;;;11.22;100.00
11682;BME280;5897;42.640;23.310;2023-05-19T03:14:43;94144.59;;;11.16;100.00
11682;BME280;5897;42.640;23.310;2023-05-19T03:17:10;94142.75;;;11.13;100.00
11682;BME280;5897;42.640;23.310;2023-05-19T03:19:37;94140.16;;;11.10;100.00
11682;BME280;5897;42.640;23.310;2023-05-19T03:22:04;94147.16;;;11.07;100.00
11682;BME280;5897;42.640;23.310;2023-05-19T03:24:32;94145.28;;;11.04;100.00
11682;BME280;5897;42.640;23.310;2023-05-19T03:26:59;94143.78;;;11.03;100.00
11682;BME280;5897;42.640;23.310;2023-05-19T03:29:26;94149.50;;;11.05;100.00
11682;BME280;5897;42.640;23.310;2023-05-19T03:31:53;94149.69;;;11.14;100.00
11682;BME280;5897;42.640;23.310;2023-05-19T03:34:20;94139.78;;;11.24;100.00
11682;BME280;5897;42.640;23.310;2023-05-19T03:36:47;94136.31;;;11.23;100.00
11682;BME280;5897;42.640;23.310;2023-05-19T03:39:14;94146.47;;;11.19;100.00
11682;BME280;5897;42.640;23.310;2023-05-19T03:41:42;94141.88;;;11.32;100.00
11682;BME280;5897;42.640;23.310;2023-05-19T03:44:09;94143.91;;;11.28;100.00
11682;BME280;5897;42.640;23.310;2023-05-19T03:46:36;94140.56;;;11.24;100.00
11682;BME280;5897;42.640;23.310;2023-05-19T03:49:03;94155.22;;;11.39;100.00
11682;BME280;5897;42.640;23.310;2023-05-19T03:51:29;94150.69;;;11.36;100.00
11682;BME280;5897;42.640;23.310;2023-05-19T03:53:56;94148.34;;;11.51;100.00
11682;BME280;5897;42.640;23.310;2023-05-19T03:56:23;94140.97;;;11.51;100.00
11682;BME280;5897;42.640;23.310;2023-05-19T03:58:53;94141.75;;;11.68;100.00
11682;BME280;5897;42.640;23.310;2023-05-19T04:01:20;94148.91;;;11.74;100.00
11682;BME280;5897;42.640;23.310;2023-05-19T04:03:47;94161.41;;;11.84;100.00
11682;BME280;5897;42.640;23.310;2023-05-19T04:06:13;94160.88;;;11.89;100.00
11682;BME280;5897;42.640;23.310;2023-05-19T04:08:40;94167.59;;;11.97;100.00
11682;BME280;5897;42.640;23.310;2023-05-19T04:11:08;94149.19;;;11.92;100.00
11682;BME280;5897;42.640;23.310;2023-05-19T04:13:35;94157.78;;;12.03;100.00
11682;BME280;5897;42.640;23.310;2023-05-19T04:16:04;94163.53;;;12.05;100.00
11682;BME280;5897;42.640;23.310;2023-05-19T04:18:31;94164.94;;;12.09;100.00
11682;BME280;5897;42.640;23.310;2023-05-19T04:20:57;94165.66;;;12.26;100.00
11682;BME280;5897;42.640;23.310;2023-05-19T04:23:24;94165.28;;;12.24;100.00
11682;BME280;5897;42.640;23.310;2023-05-19T04:25:51;94168.34;;;12.26;100.00
11682;BME280;5897;42.640;23.310;2023-05-19T04:28:18;94178.97;;;12.33;100.00
11682;BME280;5897;42.640;23.310;2023-05-19T04:30:45;94176.06;;;12.40;100.00
11682;BME280;5897;42.640;23.310;2023-05-19T04:33:14;94172.50;;;12.43;100.00
11682;BME280;5897;42.640;23.310;2023-05-19T04:35:41;94174.47;;;12.55;100.00
11682;BME280;5897;42.640;23.310;2023-05-19T04:38:08;94169.91;;;12.64;100.00
11682;BME280;5897;42.640;23.310;2023-05-19T04:40:36;94183.88;;;12.63;100.00
11682;BME280;5897;42.640;23.310;2023-05-19T04:43:04;94179.88;;;12.80;100.00
11682;BME280;5897;42.640;23.310;2023-05-19T04:45:31;94184.66;;;12.88;100.00
11682;BME280;5897;42.640;23.310;2023-05-19T04:47:58;94189.22;;;12.79;100.00
11682;BME280;5897;42.640;23.310;2023-05-19T04:50:27;94175.75;;;12.88;100.00
11682;BME280;5897;42.640;23.310;2023-05-19T04:52:55;94182.84;;;12.85;100.00
11682;BME280;5897;42.640;23.310;2023-05-19T04:55:23;94188.78;;;12.93;100.00
11682;BME280;5897;42.640;23.310;2023-05-19T04:57:50;94191.94;;;13.04;100.00
11682;BME280;5897;42.640;23.310;2023-05-19T05:00:18;94185.56;;;13.10;100.00
11682;BME280;5897;42.640;23.310;2023-05-19T05:02:45;94194.78;;;13.13;100.00
11682;BME280;5897;42.640;23.310;2023-05-19T05:05:11;94190.66;;;13.08;100.00
11682;BME280;5897;42.640;23.310;2023-05-19T05:07:40;94190.19;;;13.22;100.00
11682;BME280;5897;42.640;23.310;2023-05-19T05:10:08;94189.00;;;13.23;100.00
11682;BME280;5897;42.640;23.310;2023-05-19T05:12:35;94181.81;;;13.42;100.00
11682;BME280;5897;42.640;23.310;2023-05-19T05:15:03;94190.91;;;13.48;100.00
11682;BME280;5897;42.640;23.310;2023-05-19T05:17:31;94195.78;;;13.53;100.00
11682;BME280;5897;42.640;23.310;2023-05-19T05:20:00;94186.59;;;13.38;100.00
11682;BME280;5897;42.640;23.310;2023-05-19T05:22:27;94186.84;;;13.65;100.00
11682;BME280;5897;42.640;23.310;2023-05-19T05:24:56;94181.28;;;13.81;100.00
11682;BME280;5897;42.640;23.310;2023-05-19T05:27:23;94180.06;;;13.82;100.00
11682;BME280;5897;42.640;23.310;2023-05-19T05:29:51;94179.06;;;13.88;100.00
11682;BME280;5897;42.640;23.310;2023-05-19T05:32:18;94179.75;;;13.80;100.00
11682;BME280;5897;42.640;23.310;2023-05-19T05:34:45;94193.78;;;14.00;100.00
11682;BME280;5897;42.640;23.310;2023-05-19T05:37:12;94193.88;;;14.09;100.00
11682;BME280;5897;42.640;23.310;2023-05-19T05:39:38;94193.44;;;14.10;100.00
11682;BME280;5897;42.640;23.310;2023-05-19T05:42:07;94192.56;;;14.35;100.00
11682;BME280;5897;42.640;23.310;2023-05-19T05:44:34;94190.53;;;14.48;100.00
11682;BME280;5897;42.640;23.310;2023-05-19T05:47:01;94186.47;;;14.52;100.00
11682;BME280;5897;42.640;23.310;2023-05-19T05:49:29;94196.44;;;14.77;98.52
11682;BME280;5897;42.640;23.310;2023-05-19T05:51:56;94198.97;;;14.71;98.48
11682;BME280;5897;42.640;23.310;2023-05-19T05:54:23;94195.03;;;14.72;98.87
11682;BME280;5897;42.640;23.310;2023-05-19T05:56:51;94205.69;;;14.88;99.96
11682;BME280;5897;42.640;23.310;2023-05-19T05:59:19;94200.81;;;15.05;99.92
11682;BME280;5897;42.640;23.310;2023-05-19T06:01:46;94203.00;;;15.28;100.00
11682;BME280;5897;42.640;23.310;2023-05-19T06:04:13;94213.63;;;15.35;93.39
11682;BME280;5897;42.640;23.310;2023-05-19T06:06:39;94227.78;;;15.30;95.07
11682;BME280;5897;42.640;23.310;2023-05-19T06:09:06;94225.47;;;15.50;95.59
11682;BME280;5897;42.640;23.310;2023-05-19T06:11:33;94221.88;;;15.62;95.35
11682;BME280;5897;42.640;23.310;2023-05-19T06:14:00;94225.06;;;15.78;95.02
11682;BME280;5897;42.640;23.310;2023-05-19T06:16:28;94235.41;;;15.92;93.54
11682;BME280;5897;42.640;23.310;2023-05-19T06:18:54;94225.84;;;15.97;92.62
11682;BME280;5897;42.640;23.310;2023-05-19T06:21:23;94207.69;;;16.03;91.56
11682;BME280;5897;42.640;23.310;2023-05-19T06:23:50;94227.81;;;16.14;89.53
11682;BME280;5897;42.640;23.310;2023-05-19T06:26:16;94231.00;;;16.22;88.24
11682;BME280;5897;42.640;23.310;2023-05-19T06:28:43;94232.53;;;16.23;89.28
11682;BME280;5897;42.640;23.310;2023-05-19T06:31:10;94232.09;;;16.33;88.47
11682;BME280;5897;42.640;23.310;2023-05-19T06:33:38;94228.03;;;16.47;88.17
11682;BME280;5897;42.640;23.310;2023-05-19T06:36:05;94217.25;;;16.43;87.77
11682;BME280;5897;42.640;23.310;2023-05-19T06:38:34;94231.94;;;16.64;89.28
11682;BME280;5897;42.640;23.310;2023-05-19T06:41:01;94227.94;;;16.74;85.92
11682;BME280;5897;42.640;23.310;2023-05-19T06:43:27;94224.50;;;16.64;85.66
11682;BME280;5897;42.640;23.310;2023-05-19T06:45:54;94228.72;;;16.83;86.63
11682;BME280;5897;42.640;23.310;2023-05-19T06:48:21;94234.75;;;16.96;84.76
11682;BME280;5897;42.640;23.310;2023-05-19T06:50:49;94238.78;;;17.10;82.93
11682;BME280;5897;42.640;23.310;2023-05-19T06:53:17;94222.09;;;17.17;84.10
11682;BME280;5897;42.640;23.310;2023-05-19T06:55:44;94240.56;;;17.22;83.63
11682;BME280;5897;42.640;23.310;2023-05-19T06:58:14;94240.06;;;17.32;82.19
11682;BME280;5897;42.640;23.310;2023-05-19T07:00:41;94244.78;;;17.32;80.03
11682;BME280;5897;42.640;23.310;2023-05-19T07:03:08;94247.81;;;17.34;79.61
11682;BME280;5897;42.640;23.310;2023-05-19T07:05:35;94253.50;;;17.54;80.00
11682;BME280;5897;42.640;23.310;2023-05-19T07:08:04;94248.81;;;17.54;75.42
11682;BME280;5897;42.640;23.310;2023-05-19T07:10:32;94254.34;;;17.69;74.79
11682;BME280;5897;42.640;23.310;2023-05-19T07:12:59;94243.63;;;17.89;75.36
11682;BME280;5897;42.640;23.310;2023-05-19T07:15:26;94248.66;;;17.81;78.01
11682;BME280;5897;42.640;23.310;2023-05-19T07:17:52;94254.38;;;17.60;78.16
11682;BME280;5897;42.640;23.310;2023-05-19T07:20:19;94255.47;;;17.86;77.60
11682;BME280;5897;42.640;23.310;2023-05-19T07:22:46;94259.66;;;17.96;78.10
11682;BME280;5897;42.640;23.310;2023-05-19T07:25:14;94249.66;;;18.16;76.87
11682;BME280;5897;42.640;23.310;2023-05-19T07:27:41;94259.44;;;18.32;76.65
11682;BME280;5897;42.640;23.310;2023-05-19T07:30:10;94258.47;;;18.58;74.39
11682;BME280;5897;42.640;23.310;2023-05-19T07:32:37;94249.53;;;18.72;76.67
11682;BME280;5897;42.640;23.310;2023-05-19T07:35:05;94251.13;;;18.79;74.25
11682;BME280;5897;42.640;23.310;2023-05-19T07:37:32;94252.28;;;19.01;72.06
11682;BME280;5897;42.640;23.310;2023-05-19T07:39:58;94249.97;;;19.23;72.27
11682;BME280;5897;42.640;23.310;2023-05-19T07:42:27;94249.38;;;19.34;68.97
11682;BME280;5897;42.640;23.310;2023-05-19T07:44:53;94252.03;;;19.43;70.17
11682;BME280;5897;42.640;23.310;2023-05-19T07:47:20;94253.72;;;19.40;70.92
11682;BME280;5897;42.640;23.310;2023-05-19T07:49:47;94262.00;;;19.17;70.02
11682;BME280;5897;42.640;23.310;2023-05-19T07:52:13;94254.66;;;19.23;67.79
11682;BME280;5897;42.640;23.310;2023-05-19T07:54:42;94261.16;;;19.11;68.68
11682;BME280;5897;42.640;23.310;2023-05-19T07:57:09;94252.09;;;19.19;68.99
11682;BME280;5897;42.640;23.310;2023-05-19T07:59:37;94249.81;;;19.18;67.88
11682;BME280;5897;42.640;23.310;2023-05-19T08:02:04;94248.31;;;19.46;69.70
11682;BME280;5897;42.640;23.310;2023-05-19T08:04:31;94245.53;;;19.60;67.27
11682;BME280;5897;42.640;23.310;2023-05-19T08:06:57;94248.59;;;19.33;67.43
11682;BME280;5897;42.640;23.310;2023-05-19T08:09:24;94240.50;;;19.39;69.85
11682;BME280;5897;42.640;23.310;2023-05-19T08:11:51;94249.88;;;19.67;68.67
11682;BME280;5897;42.640;23.310;2023-05-19T08:14:18;94239.03;;;19.92;70.75
11682;BME280;5897;42.640;23.310;2023-05-19T08:16:48;94239.72;;;20.22;69.30
11682;BME280;5897;42.640;23.310;2023-05-19T08:19:16;94256.28;;;20.33;65.57
11682;BME280;5897;42.640;23.310;2023-05-19T08:21:42;94258.56;;;20.54;64.94
11682;BME280;5897;42.640;23.310;2023-05-19T08:24:10;94243.94;;;20.63;65.78
11682;BME280;5897;42.640;23.310;2023-05-19T08:26:36;94253.03;;;20.74;66.12
11682;BME280;5897;42.640;23.310;2023-05-19T08:29:03;94243.06;;;20.31;68.39
11682;BME280;5897;42.640;23.310;2023-05-19T08:31:30;94238.69;;;20.65;66.87
11682;BME280;5897;42.640;23.310;2023-05-19T08:33:58;94236.25;;;20.92;64.21
11682;BME280;5897;42.640;23.310;2023-05-19T08:36:25;94239.97;;;20.89;62.17
11682;BME280;5897;42.640;23.310;2023-05-19T08:38:53;94243.41;;;20.64;61.56
11682;BME280;5897;42.640;23.310;2023-05-19T08:41:20;94245.31;;;20.98;62.14
11682;BME280;5897;42.640;23.310;2023-05-19T08:43:47;94239.59;;;21.27;61.66
11682;BME280;5897;42.640;23.310;2023-05-19T08:46:15;94242.00;;;21.45;61.66
11682;BME280;5897;42.640;23.310;2023-05-19T08:48:43;94230.84;;;21.29;61.46
11682;BME280;5897;42.640;23.310;2023-05-19T08:51:16;94240.34;;;21.59;60.04
11682;BME280;5897;42.640;23.310;2023-05-19T08:53:49;94240.38;;;21.64;59.32
11682;BME280;5897;42.640;23.310;2023-05-19T08:56:20;94239.53;;;21.84;60.21
11682;BME280;5897;42.640;23.310;2023-05-19T08:58:49;94232.75;;;21.48;58.77
11682;BME280;5897;42.640;23.310;2023-05-19T09:01:16;94239.47;;;21.73;60.74
11682;BME280;5897;42.640;23.310;2023-05-19T09:03:44;94236.06;;;21.89;57.37
11682;BME280;5897;42.640;23.310;2023-05-19T09:06:12;94236.16;;;21.69;54.57
11682;BME280;5897;42.640;23.310;2023-05-19T09:08:39;94237.03;;;21.86;54.61
11682;BME280;5897;42.640;23.310;2023-05-19T09:11:06;94236.91;;;22.06;54.29
11682;BME280;5897;42.640;23.310;2023-05-19T09:13:34;94234.00;;;22.26;56.25
11682;BME280;5897;42.640;23.310;2023-05-19T09:16:01;94204.44;;;22.21;55.33
11682;BME280;5897;42.640;23.310;2023-05-19T09:18:28;94220.22;;;22.26;55.22
11682;BME280;5897;42.640;23.310;2023-05-19T09:20:56;94219.56;;;22.42;53.04
11682;BME280;5897;42.640;23.310;2023-05-19T09:23:28;94213.38;;;22.63;56.02
11682;BME280;5897;42.640;23.310;2023-05-19T09:25:55;94221.25;;;22.98;52.21
11682;BME280;5897;42.640;23.310;2023-05-19T09:28:23;94214.28;;;23.19;54.53
11682;BME280;5897;42.640;23.310;2023-05-19T09:30:58;94209.78;;;23.21;50.54
11682;BME280;5897;42.640;23.310;2023-05-19T09:33:25;94202.22;;;23.16;52.02
11682;BME280;5897;42.640;23.310;2023-05-19T09:35:53;94211.50;;;23.08;53.37
11682;BME280;5897;42.640;23.310;2023-05-19T09:38:21;94201.00;;;23.28;50.23
11682;BME280;5897;42.640;23.310;2023-05-19T09:40:49;94193.75;;;23.31;50.17
11682;BME280;5897;42.640;23.310;2023-05-19T09:45:43;94209.75;;;23.71;50.78
11682;BME280;5897;42.640;23.310;2023-05-19T09:48:10;94201.25;;;23.52;51.72
11682;BME280;5897;42.640;23.310;2023-05-19T09:50:37;94202.47;;;23.79;52.08
11682;BME280;5897;42.640;23.310;2023-05-19T09:53:04;94198.72;;;23.93;49.83
11682;BME280;5897;42.640;23.310;2023-05-19T09:55:30;94202.72;;;23.92;49.75
11682;BME280;5897;42.640;23.310;2023-05-19T09:58:00;94203.72;;;23.78;48.15
11682;BME280;5897;42.640;23.310;2023-05-19T10:00:29;94204.41;;;24.17;48.62
11682;BME280;5897;42.640;23.310;2023-05-19T10:02:58;94200.63;;;24.20;47.61
11682;BME280;5897;42.640;23.310;2023-05-19T10:05:26;94197.91;;;24.09;46.23
11682;BME280;5897;42.640;23.310;2023-05-19T10:07:54;94189.50;;;24.42;46.45
11682;BME280;5897;42.640;23.310;2023-05-19T10:10:21;94186.94;;;24.49;45.32
11682;BME280;5897;42.640;23.310;2023-05-19T10:12:48;94188.84;;;24.14;45.54
11682;BME280;5897;42.640;23.310;2023-05-19T10:15:17;94165.34;;;23.74;44.46
11682;BME280;5897;42.640;23.310;2023-05-19T10:17:44;94177.16;;;23.64;48.05
11682;BME280;5897;42.640;23.310;2023-05-19T10:20:12;94186.66;;;23.96;45.59
11682;BME280;5897;42.640;23.310;2023-05-19T10:22:40;94186.16;;;23.92;44.55
11682;BME280;5897;42.640;23.310;2023-05-19T10:25:08;94177.63;;;23.84;46.14
11682;BME280;5897;42.640;23.310;2023-05-19T10:27:38;94178.78;;;24.22;46.77
11682;BME280;5897;42.640;23.310;2023-05-19T10:30:11;94181.91;;;23.74;44.29
11682;BME280;5897;42.640;23.310;2023-05-19T10:32:41;94175.38;;;23.72;47.38
11682;BME280;5897;42.640;23.310;2023-05-19T10:35:28;94171.03;;;24.15;46.64
11682;BME280;5897;42.640;23.310;2023-05-19T10:38:05;94170.06;;;24.64;44.52
11682;BME280;5897;42.640;23.310;2023-05-19T10:40:42;94169.53;;;25.11;44.86
11682;BME280;5897;42.640;23.310;2023-05-19T10:43:18;94155.09;;;25.24;43.45
11682;BME280;5897;42.640;23.310;2023-05-19T10:45:47;94171.84;;;24.56;43.26
11682;BME280;5897;42.640;23.310;2023-05-19T10:48:18;94155.41;;;24.34;41.45
11682;BME280;5897;42.640;23.310;2023-05-19T10:50:46;94152.81;;;24.47;42.19
11682;BME280;5897;42.640;23.310;2023-05-19T10:53:13;94163.06;;;24.63;43.33
11682;BME280;5897;42.640;23.310;2023-05-19T10:55:48;94154.75;;;25.03;43.98
11682;BME280;5897;42.640;23.310;2023-05-19T10:58:37;94139.38;;;25.43;42.47
11682;BME280;5897;42.640;23.310;2023-05-19T11:01:07;94146.59;;;25.75;38.23
11682;BME280;5897;42.640;23.310;2023-05-19T11:03:47;94160.19;;;25.49;37.11
11682;BME280;5897;42.640;23.310;2023-05-19T11:06:24;94158.94;;;24.80;40.30
11682;BME280;5897;42.640;23.310;2023-05-19T11:08:53;94150.53;;;25.32;42.25
11682;BME280;5897;42.640;23.310;2023-05-19T11:11:20;94158.06;;;25.90;39.89
11682;BME280;5897;42.640;23.310;2023-05-19T11:13:50;94154.78;;;25.92;39.35
11682;BME280;5897;42.640;23.310;2023-05-19T11:16:26;94157.97;;;25.96;39.31
11682;BME280;5897;42.640;23.310;2023-05-19T11:18:55;94152.44;;;25.96;38.14
11682;BME280;5897;42.640;23.310;2023-05-19T11:21:40;94141.72;;;25.63;38.12
11682;BME280;5897;42.640;23.310;2023-05-19T11:24:07;94141.22;;;25.59;38.56
11682;BME280;5897;42.640;23.310;2023-05-19T11:26:40;94148.19;;;25.95;39.42
11682;BME280;5897;42.640;23.310;2023-05-19T11:29:08;94145.38;;;26.00;35.43
11682;BME280;5897;42.640;23.310;2023-05-19T11:31:36;94145.88;;;26.41;35.53
11682;BME280;5897;42.640;23.310;2023-05-19T11:34:05;94135.56;;;26.18;35.87
11682;BME280;5897;42.640;23.310;2023-05-19T11:36:35;94131.53;;;26.19;34.92
11682;BME280;5897;42.640;23.310;2023-05-19T11:39:02;94128.38;;;26.09;36.38
11682;BME280;5897;42.640;23.310;2023-05-19T11:41:30;94135.31;;;25.97;36.18
11682;BME280;5897;42.640;23.310;2023-05-19T11:43:57;94131.47;;;25.76;36.66
11682;BME280;5897;42.640;23.310;2023-05-19T11:46:24;94132.97;;;25.24;37.52
11682;BME280;5897;42.640;23.310;2023-05-19T11:48:52;94142.53;;;24.47;41.22
11682;BME280;5897;42.640;23.310;2023-05-19T11:51:21;94143.91;;;24.19;41.49
11682;BME280;5897;42.640;23.310;2023-05-19T11:53:49;94171.41;;;23.51;49.30
11682;BME280;5897;42.640;23.310;2023-05-19T11:56:18;94190.34;;;22.50;62.51
11682;BME280;5897;42.640;23.310;2023-05-19T11:58:45;94206.81;;;21.55;67.03
11682;BME280;5897;42.640;23.310;2023-05-19T12:01:12;94216.97;;;20.41;67.79
11682;BME280;5897;42.640;23.310;2023-05-19T12:03:39;94219.66;;;20.16;61.50
11682;BME280;5897;42.640;23.310;2023-05-19T12:06:06;94205.56;;;19.88;68.88
11682;BME280;5897;42.640;23.310;2023-05-19T12:08:35;94217.53;;;19.07;61.07
11682;BME280;5897;42.640;23.310;2023-05-19T12:11:03;94221.84;;;18.56;69.37
11682;BME280;5897;42.640;23.310;2023-05-19T12:13:32;94253.31;;;18.37;72.50
11682;BME280;5897;42.640;23.310;2023-05-19T12:15:59;94254.91;;;18.29;78.65
11682;BME280;5897;42.640;23.310;2023-05-19T12:18:28;94254.34;;;18.16;79.19
11682;BME280;5897;42.640;23.310;2023-05-19T12:20:56;94255.94;;;17.52;82.85
11682;BME280;5897;42.640;23.310;2023-05-19T12:23:23;94251.78;;;16.64;89.66
11682;BME280;5897;42.640;23.310;2023-05-19T12:25:51;94253.09;;;15.88;93.75
11682;BME280;5897;42.640;23.310;2023-05-19T12:28:18;94253.75;;;15.43;98.52
11682;BME280;5897;42.640;23.310;2023-05-19T12:30:46;94240.19;;;15.22;98.72
11682;BME280;5897;42.640;23.310;2023-05-19T12:33:16;94221.09;;;14.82;100.00
11682;BME280;5897;42.640;23.310;2023-05-19T12:35:44;94228.38;;;14.64;100.00
11682;BME280;5897;42.640;23.310;2023-05-19T12:38:13;94201.66;;;14.62;100.00
11682;BME280;5897;42.640;23.310;2023-05-19T12:40:40;94213.69;;;14.83;100.00
11682;BME280;5897;42.640;23.310;2023-05-19T12:43:17;94200.66;;;14.78;100.00
11682;BME280;5897;42.640;23.310;2023-05-19T12:45:45;94199.88;;;14.99;100.00
11682;BME280;5897;42.640;23.310;2023-05-19T12:48:12;94200.22;;;15.19;100.00
11682;BME280;5897;42.640;23.310;2023-05-19T12:50:41;94197.56;;;15.28;99.68
11682;BME280;5897;42.640;23.310;2023-05-19T12:53:09;94195.97;;;15.48;97.48
11682;BME280;5897;42.640;23.310;2023-05-19T12:55:38;94186.16;;;15.60;90.73
11682;BME280;5897;42.640;23.310;2023-05-19T12:58:06;94178.63;;;15.82;93.98
11682;BME280;5897;42.640;23.310;2023-05-19T13:00:39;94172.88;;;15.98;92.63
11682;BME280;5897;42.640;23.310;2023-05-19T13:03:07;94174.97;;;16.12;84.67